logo
Search for airport 
image banner adimage banner adimage banner ad
image banner ad

SQAV - Aniversario Estra

Located in , Colombia

ICAO - , IATA -

Data provided by Airmate  

General information

Coordinates: N4°7'30" W74°54'31"
Elevation is 1051 feet MSL.
Magnetic variation is -7° East
View others Airports in Tolima

Operational data

Special qualification required
Current time UTC:
Current local time:
Weather at : SKIB - Ibague-Perales ( 41 km )
METAR: SKIB 161900Z 17012KT 9999 FEW030 SCT100 32/21 Q1017
View NOTAMs / SUP AIP / TFR affecting this airport [VIEW]
Communications frequencies: [VIEW]

Runways:

RWY identifierQFULength (ft)Width (ft)SurfaceLDA (ft)
0431°162124DIRT
22211°162124DIRT

Airport contact information

Address: Colombia

Satellite view of SQAV